createdAt,value
2019-02-15T00:01:45.745Z,4.80
2019-02-15T00:04:16.090Z,4.81
2019-02-15T00:06:46.601Z,4.66
2019-02-15T00:09:17.100Z,4.69
2019-02-15T00:11:47.701Z,4.80
2019-02-15T00:14:18.119Z,4.83
2019-02-15T00:16:48.603Z,4.84
2019-02-15T00:19:37.926Z,4.86
2019-02-15T00:22:08.417Z,4.81
2019-02-15T00:24:38.721Z,4.85
2019-02-15T00:27:09.306Z,4.83
2019-02-15T00:29:39.782Z,4.81
2019-02-15T00:32:10.512Z,4.73
2019-02-15T00:34:41.162Z,4.75
2019-02-15T00:37:11.530Z,4.78
2019-02-15T00:39:42.061Z,4.74
2019-02-15T00:42:12.555Z,4.68
2019-02-15T00:44:43.340Z,4.68
2019-02-15T00:47:32.711Z,4.64
2019-02-15T00:50:22.089Z,4.61
2019-02-15T00:53:03.982Z,4.55
2019-02-15T00:55:51.522Z,4.50
2019-02-15T00:58:41.051Z,4.36
2019-02-15T01:01:25.951Z,4.29
2019-02-15T01:04:07.299Z,4.32
2019-02-15T01:06:48.839Z,4.28
2019-02-15T01:09:24.533Z,4.28
2019-02-15T01:12:01.101Z,4.26
2019-02-15T01:14:31.580Z,4.27
2019-02-15T01:17:02.071Z,4.21
2019-02-15T01:19:32.579Z,4.12
2019-02-15T01:22:03.141Z,4.06
2019-02-15T01:24:33.640Z,4.04
2019-02-15T01:27:17.211Z,3.98
2019-02-15T01:30:03.262Z,3.91
2019-02-15T01:32:50.601Z,3.86
2019-02-15T01:35:28.631Z,3.82
2019-02-15T01:38:18.052Z,3.76
2019-02-15T01:41:07.382Z,3.71
2019-02-15T01:43:44.681Z,3.49
2019-02-15T01:46:21.886Z,3.24
2019-02-15T01:48:52.324Z,3.08
2019-02-15T01:51:22.908Z,2.94
2019-02-15T01:53:53.312Z,2.95
2019-02-15T01:56:23.775Z,2.93
2019-02-15T01:58:54.291Z,2.91
2019-02-15T02:01:27.017Z,2.84
2019-02-15T02:03:57.462Z,2.77
2019-02-15T02:06:27.953Z,2.73
2019-02-15T02:08:58.302Z,2.64
2019-02-15T02:11:28.893Z,2.64
2019-02-15T02:13:59.441Z,2.61
2019-02-15T02:16:29.992Z,2.58
2019-02-15T02:19:00.422Z,2.57
2019-02-15T02:21:30.965Z,2.53
2019-02-15T02:24:01.448Z,2.50
2019-02-15T02:26:31.892Z,2.53
2019-02-15T02:29:02.340Z,2.42
2019-02-15T02:31:33.541Z,2.31
2019-02-15T02:34:04.031Z,2.21
2019-02-15T02:36:54.850Z,2.16
2019-02-15T02:39:26.250Z,2.12
2019-02-15T02:41:57.641Z,2.05
2019-02-15T02:44:28.086Z,2.01
2019-02-15T02:46:58.613Z,1.95
2019-02-15T02:49:29.043Z,1.96
2019-02-15T02:51:59.573Z,1.91
2019-02-15T02:54:29.993Z,1.85
2019-02-15T02:57:00.443Z,1.83
2019-02-15T02:59:31.009Z,1.76
2019-02-15T03:02:01.541Z,1.68
2019-02-15T03:04:31.975Z,1.60
2019-02-15T03:07:02.511Z,1.58
2019-02-15T03:09:32.871Z,1.47
2019-02-15T03:12:03.342Z,1.43
2019-02-15T03:14:33.961Z,1.38
2019-02-15T03:17:04.305Z,1.38
2019-02-15T03:19:34.803Z,1.34
2019-02-15T03:22:05.297Z,1.33
2019-02-15T03:24:35.832Z,1.35
2019-02-15T03:27:06.333Z,1.29
2019-02-15T03:29:36.965Z,1.27
2019-02-15T03:32:07.462Z,1.23
2019-02-15T03:34:37.932Z,1.24
2019-02-15T03:37:27.273Z,1.30
2019-02-15T03:40:06.073Z,1.27
2019-02-15T03:42:36.792Z,1.33
2019-02-15T03:45:07.430Z,1.31
2019-02-15T03:47:38.582Z,1.32
2019-02-15T03:50:10.057Z,1.28
2019-02-15T03:52:40.622Z,1.25
2019-02-15T03:55:11.294Z,1.24
2019-02-15T03:57:41.792Z,1.27
2019-02-15T04:00:13.662Z,1.23
2019-02-15T04:02:44.114Z,1.17
2019-02-15T04:05:15.114Z,1.14
2019-02-15T04:07:45.752Z,1.10
2019-02-15T04:10:16.149Z,1.12
2019-02-15T04:12:46.594Z,1.09
2019-02-15T04:15:17.123Z,1.10
2019-02-15T04:17:47.720Z,1.06
2019-02-15T04:20:18.250Z,0.98
2019-02-15T04:22:48.821Z,0.92
2019-02-15T04:25:19.370Z,0.86
2019-02-15T04:27:49.786Z,0.86
2019-02-15T04:30:20.368Z,0.84
2019-02-15T04:32:50.792Z,0.79
2019-02-15T04:35:21.252Z,0.71
2019-02-15T04:37:51.715Z,0.71
2019-02-15T04:40:22.261Z,0.83
2019-02-15T04:42:53.124Z,0.83
2019-02-15T04:45:23.589Z,0.81
2019-02-15T04:47:53.979Z,0.79
2019-02-15T04:50:24.334Z,0.72
2019-02-15T04:52:54.785Z,0.70
2019-02-15T04:55:25.290Z,0.72
2019-02-15T04:57:55.780Z,0.82
2019-02-15T05:00:26.415Z,0.80
2019-02-15T05:02:56.960Z,0.83
2019-02-15T05:05:27.519Z,0.81
2019-02-15T05:07:57.994Z,0.76
2019-02-15T05:10:28.402Z,0.69
2019-02-15T05:12:58.852Z,0.59
2019-02-15T05:15:29.430Z,0.52
2019-02-15T05:17:59.922Z,0.55
2019-02-15T05:20:30.359Z,0.66
2019-02-15T05:23:00.852Z,0.70
2019-02-15T05:25:31.294Z,0.80
2019-02-15T05:28:02.143Z,0.88
2019-02-15T05:30:32.642Z,0.85
2019-02-15T05:33:03.011Z,0.85
2019-02-15T05:35:33.661Z,0.77
2019-02-15T05:38:04.366Z,0.72
2019-02-15T05:40:35.126Z,0.68
2019-02-15T05:43:05.964Z,0.58
2019-02-15T05:45:37.041Z,0.58
2019-02-15T05:48:07.581Z,0.54
2019-02-15T05:50:38.839Z,0.44
2019-02-15T05:53:09.363Z,0.37
2019-02-15T05:55:39.966Z,0.27
2019-02-15T05:58:10.922Z,0.25
2019-02-15T06:00:41.424Z,0.21
2019-02-15T06:03:13.701Z,0.43
2019-02-15T06:05:44.078Z,0.32
2019-02-15T06:08:14.602Z,0.30
2019-02-15T06:10:45.059Z,0.40
2019-02-15T06:13:15.581Z,0.50
2019-02-15T06:15:46.235Z,0.59
2019-02-15T06:18:16.820Z,0.52
2019-02-15T06:20:47.244Z,0.50
2019-02-15T06:23:18.144Z,0.48
2019-02-15T06:25:48.692Z,0.50
2019-02-15T06:28:19.230Z,0.63
2019-02-15T06:30:49.723Z,0.77
2019-02-15T06:33:20.275Z,0.98
2019-02-15T06:35:50.680Z,1.28
2019-02-15T06:38:21.201Z,1.70
2019-02-15T06:40:51.820Z,2.10
2019-02-15T06:43:22.362Z,2.35
2019-02-15T06:45:53.002Z,2.72
2019-02-15T06:48:23.394Z,2.24
2019-02-15T06:50:53.791Z,3.58
2019-02-15T06:53:24.269Z,4.70
2019-02-15T06:55:56.662Z,4.59
2019-02-15T06:58:27.245Z,4.69
2019-02-15T07:01:16.545Z,4.75
2019-02-15T07:04:05.985Z,5.54
2019-02-15T07:06:36.406Z,5.68
2019-02-15T07:09:08.040Z,6.79
2019-02-15T07:11:38.514Z,7.82
2019-02-15T07:14:23.578Z,7.20
2019-02-15T07:16:53.995Z,8.67
2019-02-15T07:19:24.416Z,9.73
2019-02-15T07:21:54.800Z,10.14
2019-02-15T07:24:25.294Z,10.61
2019-02-15T07:26:55.668Z,8.68
2019-02-15T07:29:26.110Z,10.11
2019-02-15T07:31:56.611Z,8.24
2019-02-15T07:34:27.010Z,9.13
2019-02-15T07:36:57.483Z,9.49
2019-02-15T07:39:27.844Z,9.23
2019-02-15T07:41:58.329Z,11.47
2019-02-15T07:44:29.825Z,12.25
2019-02-15T07:47:00.599Z,12.03
2019-02-15T07:49:31.055Z,12.86
2019-02-15T07:52:01.473Z,12.83
2019-02-15T07:54:31.913Z,12.95
2019-02-15T07:57:02.379Z,12.54
2019-02-15T07:59:32.778Z,12.60
2019-02-15T08:02:03.259Z,12.78
2019-02-15T08:04:33.836Z,12.71
2019-02-15T08:07:04.339Z,12.70
2019-02-15T08:09:34.925Z,12.72
2019-02-15T08:12:05.429Z,12.97
2019-02-15T08:14:35.898Z,13.53
2019-02-15T08:17:06.571Z,13.52
2019-02-15T08:19:37.010Z,13.54
2019-02-15T08:22:07.595Z,13.91
2019-02-15T08:24:38.120Z,14.29
2019-02-15T08:27:08.609Z,14.87
2019-02-15T08:29:39.000Z,14.95
2019-02-15T08:32:09.493Z,14.79
2019-02-15T08:34:39.950Z,15.10
2019-02-15T08:37:10.525Z,15.32
2019-02-15T08:39:41.059Z,15.25
2019-02-15T08:42:11.629Z,15.13
2019-02-15T08:44:42.169Z,14.95
2019-02-15T08:47:12.846Z,15.39
2019-02-15T08:49:43.406Z,14.52
2019-02-15T08:52:13.905Z,14.92
2019-02-15T08:54:44.219Z,14.96
2019-02-15T08:57:14.694Z,15.55
2019-02-15T08:59:45.176Z,16.14
2019-02-15T09:02:25.571Z,15.70
2019-02-15T09:04:56.250Z,16.20
2019-02-15T09:07:26.845Z,16.72
2019-02-15T09:09:57.232Z,16.18
2019-02-15T09:12:27.749Z,15.80
2019-02-15T09:14:58.256Z,15.20
2019-02-15T09:17:28.735Z,17.90
2019-02-15T09:19:59.231Z,15.78
2019-02-15T09:22:29.739Z,14.78
2019-02-15T09:25:00.247Z,17.82
2019-02-15T09:27:42.059Z,17.95
2019-02-15T09:30:14.175Z,17.89
2019-02-15T09:32:44.727Z,18.74
2019-02-15T09:35:15.191Z,18.49
2019-02-15T09:37:45.713Z,18.76
2019-02-15T09:40:16.812Z,18.97
2019-02-15T09:42:47.397Z,18.84
2019-02-15T09:45:17.942Z,18.48
2019-02-15T09:47:48.736Z,17.38
2019-02-15T09:50:19.462Z,16.18
2019-02-15T09:52:49.901Z,18.19
2019-02-15T09:55:20.501Z,17.95
2019-02-15T09:57:51.020Z,18.14
2019-02-15T10:00:21.550Z,15.57
2019-02-15T10:02:52.492Z,17.68
2019-02-15T10:05:23.091Z,18.16
2019-02-15T10:07:53.570Z,17.83
2019-02-15T10:10:24.002Z,18.71
2019-02-15T10:12:54.722Z,16.94
2019-02-15T10:15:25.491Z,14.55
2019-02-15T10:17:56.010Z,18.04
2019-02-15T10:20:26.683Z,19.38
2019-02-15T10:22:57.279Z,14.89
2019-02-15T10:25:27.710Z,18.22
2019-02-15T10:27:58.171Z,19.06
2019-02-15T10:30:28.891Z,17.63
2019-02-15T10:32:59.400Z,17.94
2019-02-15T10:35:29.886Z,16.86
2019-02-15T10:38:00.456Z,18.58
2019-02-15T10:40:31.039Z,18.36
2019-02-15T10:43:01.856Z,18.66
2019-02-15T10:45:32.410Z,18.83
2019-02-15T10:48:03.041Z,18.66
2019-02-15T10:50:34.128Z,18.00
2019-02-15T10:53:04.760Z,18.86
2019-02-15T10:55:35.349Z,18.85
2019-02-15T10:58:06.056Z,18.46
2019-02-15T11:00:37.161Z,19.42
2019-02-15T11:03:07.721Z,19.05
2019-02-15T11:05:38.311Z,19.91
2019-02-15T11:08:08.911Z,19.44
2019-02-15T11:10:39.527Z,20.12
2019-02-15T11:13:10.066Z,20.40
2019-02-15T11:15:40.662Z,19.79
2019-02-15T11:18:11.420Z,20.40
2019-02-15T11:20:42.003Z,20.33
2019-02-15T11:23:12.619Z,20.97
2019-02-15T11:25:43.475Z,21.34
2019-02-15T11:28:13.987Z,21.24
2019-02-15T11:30:44.567Z,20.52
2019-02-15T11:33:15.142Z,18.30
2019-02-15T11:35:45.871Z,19.52
2019-02-15T11:38:16.452Z,20.82
2019-02-15T11:40:47.011Z,20.76
2019-02-15T11:43:17.486Z,19.70
2019-02-15T11:45:48.089Z,18.96
2019-02-15T11:48:18.634Z,18.45
2019-02-15T11:50:49.212Z,19.62
2019-02-15T11:53:19.817Z,19.43
2019-02-15T11:55:50.360Z,19.83
2019-02-15T11:58:20.901Z,19.72
2019-02-15T12:00:51.486Z,19.30
2019-02-15T12:03:22.040Z,19.77
2019-02-15T12:05:52.568Z,19.01
2019-02-15T12:08:23.282Z,19.70
2019-02-15T12:10:53.871Z,18.67
2019-02-15T12:13:24.351Z,18.15
2019-02-15T12:15:54.915Z,18.02
2019-02-15T12:18:25.461Z,17.84
2019-02-15T12:20:55.988Z,17.61
2019-02-15T12:23:28.478Z,17.35
2019-02-15T12:25:58.891Z,16.93
2019-02-15T12:28:30.735Z,16.31
2019-02-15T12:31:01.431Z,15.56
2019-02-15T12:33:31.889Z,15.60
2019-02-15T12:36:02.379Z,15.03
2019-02-15T12:38:32.945Z,13.52
2019-02-15T12:41:03.423Z,13.87
2019-02-15T12:43:33.951Z,14.19
2019-02-15T12:46:04.488Z,14.39
2019-02-15T12:48:35.120Z,14.73
2019-02-15T12:51:05.994Z,14.73
2019-02-15T12:53:36.520Z,14.24
2019-02-15T12:56:07.072Z,13.51
2019-02-15T12:58:37.572Z,13.94
2019-02-15T13:01:08.268Z,14.11
2019-02-15T13:03:38.701Z,13.83
2019-02-15T13:06:09.260Z,13.92
2019-02-15T13:08:39.711Z,13.93
2019-02-15T13:11:10.132Z,13.19
2019-02-15T13:13:40.891Z,13.32
2019-02-15T13:16:11.365Z,13.64
2019-02-15T13:18:41.785Z,13.27
2019-02-15T13:21:12.383Z,13.39
2019-02-15T13:23:42.947Z,13.79
2019-02-15T13:26:13.438Z,12.54
2019-02-15T13:28:43.882Z,13.03
2019-02-15T13:31:14.471Z,13.24
2019-02-15T13:33:45.791Z,13.14
2019-02-15T13:36:16.220Z,12.53
2019-02-15T13:38:46.771Z,12.91
2019-02-15T13:41:17.267Z,12.92
2019-02-15T13:43:48.044Z,12.65
2019-02-15T13:46:18.912Z,12.72
2019-02-15T13:48:49.383Z,12.45
2019-02-15T13:51:19.869Z,12.38
2019-02-15T13:53:50.534Z,12.43
2019-02-15T13:56:21.101Z,12.38
2019-02-15T13:58:51.719Z,11.93
2019-02-15T14:01:22.388Z,12.06
2019-02-15T14:03:52.895Z,11.90
2019-02-15T14:06:23.452Z,12.26
2019-02-15T14:08:53.960Z,12.18
2019-02-15T14:11:24.613Z,12.02
2019-02-15T14:13:55.111Z,11.95
2019-02-15T14:16:25.507Z,12.10
2019-02-15T14:18:56.096Z,12.13
2019-02-15T14:21:26.573Z,11.99
2019-02-15T14:23:57.202Z,11.61
2019-02-15T14:26:27.628Z,11.65
2019-02-15T14:28:58.116Z,11.62
2019-02-15T14:31:28.663Z,11.74
2019-02-15T14:33:59.072Z,11.79
2019-02-15T14:36:29.618Z,11.71
2019-02-15T14:39:00.149Z,11.79
2019-02-15T14:41:30.658Z,11.70
2019-02-15T14:44:01.056Z,11.63
2019-02-15T14:46:31.752Z,11.48
2019-02-15T14:49:02.229Z,11.63
2019-02-15T14:51:32.703Z,11.65
2019-02-15T14:54:03.310Z,11.60
2019-02-15T14:56:34.595Z,11.48
2019-02-15T14:59:05.232Z,11.39
2019-02-15T15:01:37.030Z,11.23
2019-02-15T15:04:07.611Z,11.25
2019-02-15T15:06:40.073Z,11.03
2019-02-15T15:09:14.502Z,11.13
2019-02-15T15:11:48.848Z,11.21
2019-02-15T15:14:20.534Z,11.20
2019-02-15T15:16:51.717Z,11.16
2019-02-15T15:19:23.316Z,11.11
2019-02-15T15:21:55.149Z,10.97
2019-02-15T15:24:28.364Z,10.71
2019-02-15T15:27:00.714Z,10.62
2019-02-15T15:29:33.806Z,10.21
2019-02-15T15:32:05.917Z,10.17
2019-02-15T15:34:37.228Z,9.98
2019-02-15T15:37:16.282Z,9.81
2019-02-15T15:39:41.798Z,9.67
2019-02-15T15:42:14.345Z,9.53
2019-02-15T15:44:47.198Z,9.26
2019-02-15T15:47:18.872Z,9.32
2019-02-15T15:49:53.741Z,9.12
2019-02-15T15:52:25.297Z,9.08
2019-02-15T15:54:56.893Z,8.97
2019-02-15T15:57:27.824Z,8.88
2019-02-15T15:59:59.317Z,8.74
2019-02-15T16:02:32.310Z,8.50
2019-02-15T16:05:05.792Z,8.47
2019-02-15T16:07:38.100Z,8.36
2019-02-15T16:10:13.465Z,8.24
2019-02-15T16:12:45.510Z,8.09
2019-02-15T16:15:18.344Z,8.02
2019-02-15T16:17:50.908Z,7.73
2019-02-15T16:20:23.828Z,7.66
2019-02-15T16:22:54.573Z,7.64
2019-02-15T16:25:25.553Z,7.60
2019-02-15T16:27:57.075Z,7.39
2019-02-15T16:30:27.617Z,7.38
2019-02-15T16:32:58.204Z,7.35
2019-02-15T16:35:32.001Z,7.29
2019-02-15T16:38:02.543Z,7.17
2019-02-15T16:40:33.056Z,7.18
2019-02-15T16:43:03.781Z,7.13
2019-02-15T16:45:34.599Z,7.07
2019-02-15T16:48:05.176Z,7.17
2019-02-15T16:50:35.533Z,7.11
2019-02-15T16:53:06.083Z,7.09
2019-02-15T16:55:42.479Z,7.12
2019-02-15T16:58:16.096Z,6.94
2019-02-15T17:00:46.784Z,6.86
2019-02-15T17:03:19.803Z,6.87
2019-02-15T17:05:50.416Z,6.88
2019-02-15T17:08:22.215Z,6.75
2019-02-15T17:10:52.755Z,6.61
2019-02-15T17:13:23.771Z,6.55
2019-02-15T17:15:54.269Z,6.45
2019-02-15T17:18:25.250Z,6.19
2019-02-15T17:20:55.908Z,6.25
2019-02-15T17:23:30.741Z,6.20
2019-02-15T17:26:01.370Z,6.20
2019-02-15T17:28:33.215Z,6.15
2019-02-15T17:31:04.920Z,6.16
2019-02-15T17:33:35.698Z,6.09
2019-02-15T17:36:09.066Z,6.03
2019-02-15T17:38:42.211Z,5.99
2019-02-15T17:41:17.758Z,5.93
2019-02-15T17:43:49.610Z,5.88
2019-02-15T17:46:31.244Z,5.79
2019-02-15T17:49:05.988Z,5.73
2019-02-15T17:51:39.328Z,5.66
2019-02-15T17:54:10.188Z,5.58
2019-02-15T17:56:41.922Z,5.52
2019-02-15T17:59:16.949Z,5.51
2019-02-15T18:01:49.922Z,5.46
2019-02-15T18:04:22.822Z,5.39
2019-02-15T18:06:53.416Z,5.38
2019-02-15T18:09:28.380Z,5.36
2019-02-15T18:12:00.280Z,5.34
2019-02-15T18:14:32.216Z,5.30
2019-02-15T18:17:07.064Z,5.23
2019-02-15T18:19:46.923Z,5.22
2019-02-15T18:22:10.647Z,5.11
2019-02-15T18:24:42.630Z,5.07
2019-02-15T18:27:15.733Z,5.08
2019-02-15T18:29:46.472Z,4.92
2019-02-15T18:32:18.173Z,4.79
2019-02-15T18:34:50.345Z,4.76
2019-02-15T18:37:25.072Z,4.71
2019-02-15T18:40:01.243Z,4.66
2019-02-15T18:42:34.117Z,4.54
2019-02-15T18:45:08.824Z,4.46
2019-02-15T18:47:44.724Z,4.37
2019-02-15T18:50:16.476Z,4.26
2019-02-15T18:52:50.117Z,4.14
2019-02-15T18:55:23.443Z,4.09
2019-02-15T18:57:55.396Z,4.02
2019-02-15T19:00:27.144Z,3.96
2019-02-15T19:02:59.433Z,3.98
2019-02-15T19:05:31.079Z,3.99
2019-02-15T19:08:01.844Z,4.04
2019-02-15T19:10:32.645Z,4.07
2019-02-15T19:13:03.381Z,4.06
2019-02-15T19:15:37.685Z,4.07
2019-02-15T19:18:09.526Z,4.10
2019-02-15T19:20:40.276Z,4.04
2019-02-15T19:23:13.107Z,4.04
2019-02-15T19:25:45.828Z,4.02
2019-02-15T19:28:16.503Z,3.96
2019-02-15T19:30:48.382Z,3.91
2019-02-15T19:33:22.526Z,3.91
2019-02-15T19:36:11.091Z,3.90
2019-02-15T19:38:41.976Z,3.91
2019-02-15T19:41:18.187Z,3.86
2019-02-15T19:43:52.383Z,3.83
2019-02-15T19:46:23.427Z,3.83
2019-02-15T19:48:56.385Z,3.82
2019-02-15T19:51:30.465Z,3.81
2019-02-15T19:54:04.938Z,3.77
2019-02-15T19:56:41.015Z,3.91
2019-02-15T19:59:12.839Z,3.85
2019-02-15T20:01:52.176Z,3.78
2019-02-15T20:04:33.986Z,3.70
2019-02-15T20:07:05.888Z,3.67
2019-02-15T20:09:36.760Z,3.63
2019-02-15T20:12:10.456Z,3.63
2019-02-15T20:14:48.415Z,3.59
2019-02-15T20:17:22.311Z,3.57
2019-02-15T20:19:53.176Z,3.49
2019-02-15T20:22:33.659Z,3.40
2019-02-15T20:25:08.597Z,3.34
2019-02-15T20:27:55.456Z,3.29
2019-02-15T20:30:39.938Z,3.27
2019-02-15T20:33:12.681Z,3.28
2019-02-15T20:35:46.114Z,3.28
2019-02-15T20:38:20.852Z,3.31
2019-02-15T20:40:54.402Z,3.36
2019-02-15T20:43:27.910Z,3.39
2019-02-15T20:46:02.235Z,3.39
2019-02-15T20:48:40.488Z,3.39
2019-02-15T20:51:14.595Z,3.37
2019-02-15T20:53:48.752Z,3.34
2019-02-15T20:56:23.168Z,3.34
2019-02-15T20:58:57.261Z,3.32
2019-02-15T21:01:32.440Z,3.31
2019-02-15T21:04:06.343Z,3.27
2019-02-15T21:06:37.585Z,3.26
2019-02-15T21:09:12.684Z,3.24
2019-02-15T21:11:45.976Z,3.18
2019-02-15T21:14:17.210Z,3.14
2019-02-15T21:16:59.101Z,3.14
2019-02-15T21:19:38.000Z,3.13
2019-02-15T21:22:10.385Z,3.18
2019-02-15T21:24:47.085Z,3.30
2019-02-15T21:27:20.101Z,3.42
2019-02-15T21:29:57.475Z,3.55
2019-02-15T21:32:32.812Z,3.59
2019-02-15T21:35:05.156Z,3.65
2019-02-15T21:37:35.955Z,3.64
2019-02-15T21:40:10.397Z,3.66
2019-02-15T21:42:45.348Z,3.68
2019-02-15T21:45:18.968Z,3.68
2019-02-15T21:47:49.805Z,3.60
2019-02-15T21:50:21.161Z,3.44
2019-02-15T21:52:52.576Z,3.65
2019-02-15T21:55:25.467Z,3.81
2019-02-15T21:58:01.607Z,4.26
2019-02-15T22:00:32.863Z,4.29
2019-02-15T22:03:09.016Z,4.55
2019-02-15T22:05:41.866Z,4.86
2019-02-15T22:08:14.131Z,5.47
2019-02-15T22:10:46.311Z,5.50
2019-02-15T22:13:17.080Z,5.42
2019-02-15T22:15:48.011Z,5.62
2019-02-15T22:18:18.783Z,5.71
2019-02-15T22:20:49.401Z,5.60
2019-02-15T22:23:20.324Z,5.59
2019-02-15T22:25:50.841Z,5.56
2019-02-15T22:28:21.455Z,5.46
2019-02-15T22:30:52.240Z,5.33
2019-02-15T22:33:23.121Z,5.38
2019-02-15T22:35:53.872Z,5.34
2019-02-15T22:38:24.501Z,5.23
2019-02-15T22:41:07.048Z,5.18
2019-02-15T22:43:37.502Z,5.34
2019-02-15T22:46:08.125Z,5.18
2019-02-15T22:48:38.590Z,5.10
2019-02-15T22:51:09.416Z,5.28
2019-02-15T22:53:39.930Z,5.10
2019-02-15T22:56:10.626Z,5.17
2019-02-15T22:58:41.043Z,4.94
2019-02-15T23:01:17.171Z,4.74
2019-02-15T23:03:47.880Z,4.58
2019-02-15T23:06:18.381Z,4.05
2019-02-15T23:08:49.002Z,4.00
2019-02-15T23:11:19.642Z,4.30
2019-02-15T23:13:50.135Z,4.61
2019-02-15T23:16:21.219Z,4.56
2019-02-15T23:18:51.749Z,4.49
2019-02-15T23:21:22.249Z,4.39
2019-02-15T23:23:52.953Z,4.68
2019-02-15T23:26:23.426Z,4.36
2019-02-15T23:28:53.861Z,4.01
2019-02-15T23:31:24.344Z,3.80
2019-02-15T23:33:54.684Z,3.37
2019-02-15T23:36:25.230Z,3.07
2019-02-15T23:38:55.827Z,2.87
2019-02-15T23:41:26.395Z,2.65
2019-02-15T23:43:57.012Z,2.60
2019-02-15T23:46:27.520Z,2.23
2019-02-15T23:48:58.295Z,2.10
2019-02-15T23:51:28.727Z,2.06
2019-02-15T23:53:59.100Z,2.28
2019-02-15T23:56:29.499Z,2.44
2019-02-15T23:59:00.042Z,2.37
